sensor_id;sensor_type;location;lat;lon;timestamp;pressure;altitude;pressure_sealevel;temperature;humidity
55373;BME280;41249;47.838;16.490;2023-04-21T00:01:30;99315.91;;;3.97;79.18
55373;BME280;41249;47.838;16.490;2023-04-21T00:03:57;99310.69;;;3.92;80.04
55373;BME280;41249;47.838;16.490;2023-04-21T00:06:24;99316.09;;;3.88;80.82
55373;BME280;41249;47.838;16.490;2023-04-21T00:08:52;99298.91;;;3.91;80.55
55373;BME280;41249;47.838;16.490;2023-04-21T00:11:18;99302.25;;;4.00;79.90
55373;BME280;41249;47.838;16.490;2023-04-21T00:13:45;99301.66;;;3.91;80.52
55373;BME280;41249;47.838;16.490;2023-04-21T00:16:12;99304.47;;;3.79;80.82
55373;BME280;41249;47.838;16.490;2023-04-21T00:18:39;99300.03;;;3.75;81.06
55373;BME280;41249;47.838;16.490;2023-04-21T00:21:05;99300.75;;;3.72;81.23
55373;BME280;41249;47.838;16.490;2023-04-21T00:23:32;99296.31;;;3.67;80.82
55373;BME280;41249;47.838;16.490;2023-04-21T00:25:58;99292.16;;;3.73;81.32
55373;BME280;41249;47.838;16.490;2023-04-21T00:28:28;99296.25;;;3.79;80.22
55373;BME280;41249;47.838;16.490;2023-04-21T00:30:55;99295.00;;;3.92;79.39
55373;BME280;41249;47.838;16.490;2023-04-21T00:33:22;99299.78;;;3.80;79.79
55373;BME280;41249;47.838;16.490;2023-04-21T00:35:49;99300.63;;;3.68;80.48
55373;BME280;41249;47.838;16.490;2023-04-21T00:38:15;99305.84;;;3.58;80.32
55373;BME280;41249;47.838;16.490;2023-04-21T00:40:42;99298.84;;;3.45;80.47
55373;BME280;41249;47.838;16.490;2023-04-21T00:43:08;99303.31;;;3.37;80.59
55373;BME280;41249;47.838;16.490;2023-04-21T00:45:35;99296.47;;;3.31;80.48
55373;BME280;41249;47.838;16.490;2023-04-21T00:48:02;99299.81;;;3.24;82.42
55373;BME280;41249;47.838;16.490;2023-04-21T00:50:28;99305.53;;;3.19;82.05
55373;BME280;41249;47.838;16.490;2023-04-21T00:52:55;99292.97;;;3.18;82.11
55373;BME280;41249;47.838;16.490;2023-04-21T00:55:23;99294.19;;;3.21;81.73
55373;BME280;41249;47.838;16.490;2023-04-21T00:57:51;99292.84;;;3.27;81.99
55373;BME280;41249;47.838;16.490;2023-04-21T01:00:18;99292.09;;;3.42;82.17
55373;BME280;41249;47.838;16.490;2023-04-21T01:02:45;99300.06;;;3.47;81.76
55373;BME280;41249;47.838;16.490;2023-04-21T01:05:12;99297.66;;;3.46;81.85
55373;BME280;41249;47.838;16.490;2023-04-21T01:07:39;99287.75;;;3.41;81.45
55373;BME280;41249;47.838;16.490;2023-04-21T01:10:06;99289.78;;;3.44;81.12
55373;BME280;41249;47.838;16.490;2023-04-21T01:12:41;99290.06;;;3.39;81.42
55373;BME280;41249;47.838;16.490;2023-04-21T01:15:08;99290.41;;;3.37;81.36
55373;BME280;41249;47.838;16.490;2023-04-21T01:17:34;99286.94;;;3.40;81.30
55373;BME280;41249;47.838;16.490;2023-04-21T01:20:07;99292.09;;;3.42;80.40
55373;BME280;41249;47.838;16.490;2023-04-21T01:22:39;99283.69;;;3.35;80.85
55373;BME280;41249;47.838;16.490;2023-04-21T01:25:07;99277.75;;;3.21;81.49
55373;BME280;41249;47.838;16.490;2023-04-21T01:27:34;99285.97;;;3.21;82.21
55373;BME280;41249;47.838;16.490;2023-04-21T01:30:01;99285.72;;;3.26;81.97
55373;BME280;41249;47.838;16.490;2023-04-21T01:32:29;99276.13;;;3.32;81.38
55373;BME280;41249;47.838;16.490;2023-04-21T01:34:57;99281.63;;;3.32;81.81
55373;BME280;41249;47.838;16.490;2023-04-21T01:37:27;99285.50;;;3.31;81.17
55373;BME280;41249;47.838;16.490;2023-04-21T01:39:56;99284.63;;;3.27;81.45
55373;BME280;41249;47.838;16.490;2023-04-21T01:42:26;99291.69;;;3.28;81.75
55373;BME280;41249;47.838;16.490;2023-04-21T01:44:54;99282.06;;;3.34;81.46
55373;BME280;41249;47.838;16.490;2023-04-21T01:47:22;99292.91;;;3.43;81.14
55373;BME280;41249;47.838;16.490;2023-04-21T01:49:49;99286.81;;;3.49;81.43
55373;BME280;41249;47.838;16.490;2023-04-21T01:52:16;99285.03;;;3.57;80.54
55373;BME280;41249;47.838;16.490;2023-04-21T01:54:42;99285.59;;;3.62;80.36
55373;BME280;41249;47.838;16.490;2023-04-21T01:57:09;99291.25;;;3.69;80.28
55373;BME280;41249;47.838;16.490;2023-04-21T01:59:36;99296.13;;;3.76;80.06
55373;BME280;41249;47.838;16.490;2023-04-21T02:02:03;99286.75;;;3.77;80.28
55373;BME280;41249;47.838;16.490;2023-04-21T02:04:30;99289.94;;;3.79;80.02
55373;BME280;41249;47.838;16.490;2023-04-21T02:06:57;99288.69;;;3.76;79.12
55373;BME280;41249;47.838;16.490;2023-04-21T02:09:23;99287.09;;;3.60;79.58
55373;BME280;41249;47.838;16.490;2023-04-21T02:11:50;99289.63;;;3.53;79.52
55373;BME280;41249;47.838;16.490;2023-04-21T02:14:16;99286.34;;;3.47;80.02
55373;BME280;41249;47.838;16.490;2023-04-21T02:16:43;99290.84;;;3.39;79.91
55373;BME280;41249;47.838;16.490;2023-04-21T02:19:10;99293.41;;;3.32;79.39
55373;BME280;41249;47.838;16.490;2023-04-21T02:21:37;99295.13;;;3.25;79.65
55373;BME280;41249;47.838;16.490;2023-04-21T02:24:04;99295.13;;;3.13;80.75
55373;BME280;41249;47.838;16.490;2023-04-21T02:26:30;99286.28;;;3.04;80.68
55373;BME280;41249;47.838;16.490;2023-04-21T02:28:57;99298.63;;;2.98;81.30
55373;BME280;41249;47.838;16.490;2023-04-21T02:31:24;99299.22;;;2.91;80.57
55373;BME280;41249;47.838;16.490;2023-04-21T02:33:50;99297.72;;;2.94;82.12
55373;BME280;41249;47.838;16.490;2023-04-21T02:36:17;99286.44;;;2.95;83.11
55373;BME280;41249;47.838;16.490;2023-04-21T02:38:44;99294.53;;;2.92;82.39
55373;BME280;41249;47.838;16.490;2023-04-21T02:41:10;99290.53;;;2.89;83.25
55373;BME280;41249;47.838;16.490;2023-04-21T02:43:37;99288.84;;;2.85;83.07
55373;BME280;41249;47.838;16.490;2023-04-21T02:46:07;99282.44;;;2.80;82.92
55373;BME280;41249;47.838;16.490;2023-04-21T02:48:35;99288.03;;;2.84;83.63
55373;BME280;41249;47.838;16.490;2023-04-21T02:51:02;99283.38;;;2.85;83.56
55373;BME280;41249;47.838;16.490;2023-04-21T02:53:30;99278.44;;;2.78;82.95
55373;BME280;41249;47.838;16.490;2023-04-21T02:55:57;99282.13;;;2.82;83.43
55373;BME280;41249;47.838;16.490;2023-04-21T02:58:24;99287.69;;;2.86;83.86
55373;BME280;41249;47.838;16.490;2023-04-21T03:00:51;99284.81;;;2.94;82.60
55373;BME280;41249;47.838;16.490;2023-04-21T03:03:17;99281.38;;;2.97;82.79
55373;BME280;41249;47.838;16.490;2023-04-21T03:05:44;99281.91;;;3.03;81.56
55373;BME280;41249;47.838;16.490;2023-04-21T03:08:11;99276.69;;;2.98;82.33
55373;BME280;41249;47.838;16.490;2023-04-21T03:10:38;99281.97;;;2.91;81.78
55373;BME280;41249;47.838;16.490;2023-04-21T03:13:05;99280.94;;;2.83;81.97
55373;BME280;41249;47.838;16.490;2023-04-21T03:15:31;99286.19;;;2.88;81.54
55373;BME280;41249;47.838;16.490;2023-04-21T03:17:58;99287.56;;;2.94;81.78
55373;BME280;41249;47.838;16.490;2023-04-21T03:20:25;99294.66;;;2.95;81.80
55373;BME280;41249;47.838;16.490;2023-04-21T03:22:54;99294.22;;;2.81;80.84
55373;BME280;41249;47.838;16.490;2023-04-21T03:25:21;99289.13;;;2.67;81.62
55373;BME280;41249;47.838;16.490;2023-04-21T03:27:48;99291.38;;;2.65;82.22
55373;BME280;41249;47.838;16.490;2023-04-21T03:30:15;99289.00;;;2.64;82.61
55373;BME280;41249;47.838;16.490;2023-04-21T03:32:41;99292.34;;;2.57;82.17
55373;BME280;41249;47.838;16.490;2023-04-21T03:35:08;99287.97;;;2.56;82.51
55373;BME280;41249;47.838;16.490;2023-04-21T03:37:35;99290.97;;;2.51;82.73
55373;BME280;41249;47.838;16.490;2023-04-21T03:40:02;99289.09;;;2.55;83.06
55373;BME280;41249;47.838;16.490;2023-04-21T03:42:30;99290.47;;;2.61;82.57
55373;BME280;41249;47.838;16.490;2023-04-21T03:45:05;99293.66;;;2.63;82.68
55373;BME280;41249;47.838;16.490;2023-04-21T03:47:32;99289.81;;;2.64;82.99
55373;BME280;41249;47.838;16.490;2023-04-21T03:49:58;99302.13;;;2.58;82.84
55373;BME280;41249;47.838;16.490;2023-04-21T03:52:25;99305.09;;;2.53;82.24
55373;BME280;41249;47.838;16.490;2023-04-21T03:54:52;99305.81;;;2.50;82.71
55373;BME280;41249;47.838;16.490;2023-04-21T03:57:18;99299.63;;;2.53;82.09
55373;BME280;41249;47.838;16.490;2023-04-21T03:59:45;99309.00;;;2.52;82.50
55373;BME280;41249;47.838;16.490;2023-04-21T04:02:12;99311.84;;;2.56;81.74
55373;BME280;41249;47.838;16.490;2023-04-21T04:04:38;99310.34;;;2.58;81.87
55373;BME280;41249;47.838;16.490;2023-04-21T04:07:05;99310.81;;;2.60;82.28
55373;BME280;41249;47.838;16.490;2023-04-21T04:09:34;99312.78;;;2.48;81.71
55373;BME280;41249;47.838;16.490;2023-04-21T04:12:01;99322.00;;;2.31;81.31
55373;BME280;41249;47.838;16.490;2023-04-21T04:14:29;99321.34;;;2.22;82.20
55373;BME280;41249;47.838;16.490;2023-04-21T04:16:57;99319.28;;;2.19;81.87
55373;BME280;41249;47.838;16.490;2023-04-21T04:19:29;99332.38;;;2.26;82.38
55373;BME280;41249;47.838;16.490;2023-04-21T04:21:58;99327.84;;;2.30;82.39
55373;BME280;41249;47.838;16.490;2023-04-21T04:24:26;99330.91;;;2.28;83.53
55373;BME280;41249;47.838;16.490;2023-04-21T04:26:53;99325.19;;;2.21;82.95
55373;BME280;41249;47.838;16.490;2023-04-21T04:29:21;99329.09;;;2.20;83.26
55373;BME280;41249;47.838;16.490;2023-04-21T04:31:49;99337.31;;;2.32;82.83
55373;BME280;41249;47.838;16.490;2023-04-21T04:34:16;99329.91;;;2.45;82.56
55373;BME280;41249;47.838;16.490;2023-04-21T04:36:43;99322.34;;;2.54;82.19
55373;BME280;41249;47.838;16.490;2023-04-21T04:39:10;99321.44;;;2.62;81.80
55373;BME280;41249;47.838;16.490;2023-04-21T04:41:37;99327.94;;;2.69;81.92
55373;BME280;41249;47.838;16.490;2023-04-21T04:44:04;99332.50;;;2.77;81.36
55373;BME280;41249;47.838;16.490;2023-04-21T04:46:31;99330.41;;;2.87;81.37
55373;BME280;41249;47.838;16.490;2023-04-21T04:49:01;99338.16;;;2.97;80.78
55373;BME280;41249;47.838;16.490;2023-04-21T04:51:28;99336.06;;;3.06;81.26
55373;BME280;41249;47.838;16.490;2023-04-21T04:53:54;99335.38;;;3.09;80.62
55373;BME280;41249;47.838;16.490;2023-04-21T04:56:21;99343.13;;;3.19;80.96
55373;BME280;41249;47.838;16.490;2023-04-21T04:58:48;99342.78;;;3.32;80.95
55373;BME280;41249;47.838;16.490;2023-04-21T05:01:16;99335.28;;;3.45;81.08
55373;BME280;41249;47.838;16.490;2023-04-21T05:03:45;99340.50;;;3.62;80.15
55373;BME280;41249;47.838;16.490;2023-04-21T05:06:12;99339.25;;;3.75;79.44
55373;BME280;41249;47.838;16.490;2023-04-21T05:08:39;99340.16;;;3.95;79.96
55373;BME280;41249;47.838;16.490;2023-04-21T05:11:07;99343.75;;;4.11;79.02
55373;BME280;41249;47.838;16.490;2023-04-21T05:13:33;99356.59;;;4.23;78.74
55373;BME280;41249;47.838;16.490;2023-04-21T05:16:02;99356.88;;;4.33;79.03
55373;BME280;41249;47.838;16.490;2023-04-21T05:18:29;99360.06;;;4.51;78.96
55373;BME280;41249;47.838;16.490;2023-04-21T05:20:56;99357.91;;;4.60;78.40
55373;BME280;41249;47.838;16.490;2023-04-21T05:23:23;99362.25;;;4.61;77.98
55373;BME280;41249;47.838;16.490;2023-04-21T05:25:49;99370.63;;;4.64;77.33
55373;BME280;41249;47.838;16.490;2023-04-21T05:28:16;99369.53;;;4.69;76.97
55373;BME280;41249;47.838;16.490;2023-04-21T05:30:43;99369.41;;;4.81;76.13
55373;BME280;41249;47.838;16.490;2023-04-21T05:33:09;99377.50;;;4.74;75.92
55373;BME280;41249;47.838;16.490;2023-04-21T05:35:36;99364.94;;;4.92;75.91
55373;BME280;41249;47.838;16.490;2023-04-21T05:38:03;99371.41;;;5.15;75.31
55373;BME280;41249;47.838;16.490;2023-04-21T05:40:30;99375.91;;;5.23;75.47
55373;BME280;41249;47.838;16.490;2023-04-21T05:42:56;99374.91;;;5.31;75.44
55373;BME280;41249;47.838;16.490;2023-04-21T05:45:23;99372.16;;;5.51;74.97
55373;BME280;41249;47.838;16.490;2023-04-21T05:47:50;99375.84;;;5.58;74.69
55373;BME280;41249;47.838;16.490;2023-04-21T05:50:16;99363.47;;;5.68;73.90
55373;BME280;41249;47.838;16.490;2023-04-21T05:52:43;99368.38;;;5.78;74.00
55373;BME280;41249;47.838;16.490;2023-04-21T05:55:10;99373.00;;;5.93;72.79
55373;BME280;41249;47.838;16.490;2023-04-21T05:57:37;99368.59;;;5.88;72.55
55373;BME280;41249;47.838;16.490;2023-04-21T06:00:04;99366.50;;;6.05;72.00
55373;BME280;41249;47.838;16.490;2023-04-21T06:02:31;99386.63;;;6.28;72.28
55373;BME280;41249;47.838;16.490;2023-04-21T06:04:57;99385.34;;;6.44;72.50
55373;BME280;41249;47.838;16.490;2023-04-21T06:07:24;99380.19;;;6.65;71.80
55373;BME280;41249;47.838;16.490;2023-04-21T06:09:51;99379.44;;;6.91;71.12
55373;BME280;41249;47.838;16.490;2023-04-21T06:12:18;99383.97;;;7.03;70.07
55373;BME280;41249;47.838;16.490;2023-04-21T06:14:44;99382.56;;;7.16;69.37
55373;BME280;41249;47.838;16.490;2023-04-21T06:17:15;99379.75;;;7.12;69.25
55373;BME280;41249;47.838;16.490;2023-04-21T06:19:42;99382.81;;;7.34;70.32
55373;BME280;41249;47.838;16.490;2023-04-21T06:22:09;99377.16;;;7.53;70.40
55373;BME280;41249;47.838;16.490;2023-04-21T06:24:35;99374.56;;;7.67;70.91
55373;BME280;41249;47.838;16.490;2023-04-21T06:27:02;99381.81;;;7.78;68.98
55373;BME280;41249;47.838;16.490;2023-04-21T06:29:29;99385.56;;;7.97;67.93
55373;BME280;41249;47.838;16.490;2023-04-21T06:31:56;99387.75;;;8.14;68.74
55373;BME280;41249;47.838;16.490;2023-04-21T06:34:22;99391.03;;;8.26;67.98
55373;BME280;41249;47.838;16.490;2023-04-21T06:36:49;99394.66;;;8.30;67.75
55373;BME280;41249;47.838;16.490;2023-04-21T06:39:15;99395.91;;;8.40;68.95
55373;BME280;41249;47.838;16.490;2023-04-21T06:41:42;99393.97;;;8.44;68.28
55373;BME280;41249;47.838;16.490;2023-04-21T06:44:09;99385.47;;;8.63;68.26
55373;BME280;41249;47.838;16.490;2023-04-21T06:46:39;99394.13;;;8.62;67.75
55373;BME280;41249;47.838;16.490;2023-04-21T06:49:07;99392.03;;;8.48;67.77
55373;BME280;41249;47.838;16.490;2023-04-21T06:51:34;99386.81;;;8.39;69.30
55373;BME280;41249;47.838;16.490;2023-04-21T06:54:00;99389.63;;;8.43;69.76
55373;BME280;41249;47.838;16.490;2023-04-21T06:56:27;99388.31;;;8.30;68.92
55373;BME280;41249;47.838;16.490;2023-04-21T06:58:55;99395.69;;;8.59;68.88
55373;BME280;41249;47.838;16.490;2023-04-21T07:01:22;99396.25;;;8.79;67.94
55373;BME280;41249;47.838;16.490;2023-04-21T07:03:51;99393.09;;;8.80;66.60
55373;BME280;41249;47.838;16.490;2023-04-21T07:09:14;99401.09;;;8.92;64.60
55373;BME280;41249;47.838;16.490;2023-04-21T07:11:41;99404.78;;;9.07;65.76
55373;BME280;41249;47.838;16.490;2023-04-21T07:14:07;99399.72;;;9.19;64.93
55373;BME280;41249;47.838;16.490;2023-04-21T07:16:34;99388.66;;;9.27;64.66
55373;BME280;41249;47.838;16.490;2023-04-21T07:19:01;99397.16;;;8.93;64.41
55373;BME280;41249;47.838;16.490;2023-04-21T07:21:28;99393.25;;;9.01;64.27
55373;BME280;41249;47.838;16.490;2023-04-21T07:23:57;99396.97;;;9.23;64.26
55373;BME280;41249;47.838;16.490;2023-04-21T07:26:24;99394.59;;;9.25;63.50
55373;BME280;41249;47.838;16.490;2023-04-21T07:28:51;99393.41;;;9.26;63.72
55373;BME280;41249;47.838;16.490;2023-04-21T07:31:18;99398.69;;;9.42;61.48
55373;BME280;41249;47.838;16.490;2023-04-21T07:33:45;99396.41;;;9.58;63.06
55373;BME280;41249;47.838;16.490;2023-04-21T07:36:12;99400.38;;;9.64;62.11
55373;BME280;41249;47.838;16.490;2023-04-21T07:38:38;99385.03;;;9.91;62.64
55373;BME280;41249;47.838;16.490;2023-04-21T07:41:09;99384.34;;;10.15;62.21
55373;BME280;41249;47.838;16.490;2023-04-21T07:43:37;99393.47;;;10.33;61.65
55373;BME280;41249;47.838;16.490;2023-04-21T07:46:04;99390.72;;;10.37;61.23
55373;BME280;41249;47.838;16.490;2023-04-21T07:48:31;99398.69;;;10.53;60.94
55373;BME280;41249;47.838;16.490;2023-04-21T07:50:58;99399.50;;;10.67;60.86
55373;BME280;41249;47.838;16.490;2023-04-21T07:53:26;99400.28;;;10.75;60.46
55373;BME280;41249;47.838;16.490;2023-04-21T07:55:52;99399.88;;;10.87;60.42
55373;BME280;41249;47.838;16.490;2023-04-21T07:58:20;99405.81;;;11.03;60.14
55373;BME280;41249;47.838;16.490;2023-04-21T08:00:47;99408.19;;;11.08;60.54
55373;BME280;41249;47.838;16.490;2023-04-21T08:03:14;99405.81;;;11.06;59.92
55373;BME280;41249;47.838;16.490;2023-04-21T08:05:43;99409.78;;;11.05;59.71
55373;BME280;41249;47.838;16.490;2023-04-21T08:08:10;99409.00;;;11.05;59.48
55373;BME280;41249;47.838;16.490;2023-04-21T08:10:37;99408.19;;;11.22;59.90
55373;BME280;41249;47.838;16.490;2023-04-21T08:13:04;99405.34;;;11.54;59.56
55373;BME280;41249;47.838;16.490;2023-04-21T08:18:07;99398.94;;;11.74;56.55
55373;BME280;41249;47.838;16.490;2023-04-21T08:20:34;99411.59;;;11.86;55.83
55373;BME280;41249;47.838;16.490;2023-04-21T08:23:01;99412.47;;;11.65;57.73
55373;BME280;41249;47.838;16.490;2023-04-21T08:25:28;99402.44;;;11.89;58.48
55373;BME280;41249;47.838;16.490;2023-04-21T08:27:54;99417.06;;;12.07;58.05
55373;BME280;41249;47.838;16.490;2023-04-21T08:30:21;99404.78;;;12.01;57.56
55373;BME280;41249;47.838;16.490;2023-04-21T08:32:47;99403.13;;;12.11;55.19
55373;BME280;41249;47.838;16.490;2023-04-21T08:35:14;99402.75;;;12.12;56.77
55373;BME280;41249;47.838;16.490;2023-04-21T08:37:41;99406.38;;;11.95;54.60
55373;BME280;41249;47.838;16.490;2023-04-21T08:40:08;99407.91;;;12.10;55.58
55373;BME280;41249;47.838;16.490;2023-04-21T08:42:37;99398.03;;;11.99;55.12
55373;BME280;41249;47.838;16.490;2023-04-21T08:45:04;99406.00;;;11.97;51.94
55373;BME280;41249;47.838;16.490;2023-04-21T08:47:32;99399.22;;;11.98;52.90
55373;BME280;41249;47.838;16.490;2023-04-21T08:49:58;99401.22;;;11.97;52.81
55373;BME280;41249;47.838;16.490;2023-04-21T08:52:25;99404.63;;;12.26;51.94
55373;BME280;41249;47.838;16.490;2023-04-21T08:54:52;99400.19;;;12.39;51.41
55373;BME280;41249;47.838;16.490;2023-04-21T08:57:18;99394.13;;;12.51;51.67
55373;BME280;41249;47.838;16.490;2023-04-21T08:59:45;99398.66;;;12.89;50.39
55373;BME280;41249;47.838;16.490;2023-04-21T09:02:13;99392.13;;;13.07;50.96
55373;BME280;41249;47.838;16.490;2023-04-21T09:04:44;99393.25;;;13.13;49.32
55373;BME280;41249;47.838;16.490;2023-04-21T09:07:12;99391.91;;;13.28;49.03
55373;BME280;41249;47.838;16.490;2023-04-21T09:09:56;99392.91;;;13.48;48.32
55373;BME280;41249;47.838;16.490;2023-04-21T09:12:23;99394.78;;;13.61;47.19
55373;BME280;41249;47.838;16.490;2023-04-21T09:14:49;99392.38;;;13.60;48.19
55373;BME280;41249;47.838;16.490;2023-04-21T09:17:20;99394.56;;;13.79;48.58
55373;BME280;41249;47.838;16.490;2023-04-21T09:19:47;99381.53;;;13.99;48.25
55373;BME280;41249;47.838;16.490;2023-04-21T09:22:16;99383.44;;;14.06;47.63
55373;BME280;41249;47.838;16.490;2023-04-21T09:24:47;99390.84;;;14.19;48.09
55373;BME280;41249;47.838;16.490;2023-04-21T09:27:15;99384.16;;;14.40;47.49
55373;BME280;41249;47.838;16.490;2023-04-21T09:29:46;99381.88;;;14.32;46.67
55373;BME280;41249;47.838;16.490;2023-04-21T09:32:18;99383.56;;;14.25;47.21
55373;BME280;41249;47.838;16.490;2023-04-21T09:34:45;99380.38;;;14.54;47.40
55373;BME280;41249;47.838;16.490;2023-04-21T09:37:13;99378.47;;;14.74;47.50
55373;BME280;41249;47.838;16.490;2023-04-21T09:39:45;99376.16;;;14.92;44.36
55373;BME280;41249;47.838;16.490;2023-04-21T09:42:30;99371.16;;;15.03;47.81
55373;BME280;41249;47.838;16.490;2023-04-21T09:44:57;99373.44;;;15.12;46.47
55373;BME280;41249;47.838;16.490;2023-04-21T09:47:48;99373.19;;;15.26;46.29
55373;BME280;41249;47.838;16.490;2023-04-21T09:50:16;99364.59;;;15.36;43.98
55373;BME280;41249;47.838;16.490;2023-04-21T09:53:02;99371.41;;;15.35;47.61
55373;BME280;41249;47.838;16.490;2023-04-21T09:55:32;99360.44;;;15.02;42.50
55373;BME280;41249;47.838;16.490;2023-04-21T09:57:59;99357.81;;;14.68;45.50
55373;BME280;41249;47.838;16.490;2023-04-21T10:00:27;99353.19;;;14.81;43.52
55373;BME280;41249;47.838;16.490;2023-04-21T10:02:56;99348.06;;;14.53;43.57
55373;BME280;41249;47.838;16.490;2023-04-21T10:05:23;99354.97;;;14.71;45.13
55373;BME280;41249;47.838;16.490;2023-04-21T10:07:50;99352.22;;;14.91;43.77
55373;BME280;41249;47.838;16.490;2023-04-21T10:10:22;99355.44;;;14.89;44.21
55373;BME280;41249;47.838;16.490;2023-04-21T10:12:49;99353.56;;;15.06;43.92
55373;BME280;41249;47.838;16.490;2023-04-21T10:15:33;99352.47;;;15.23;44.25
55373;BME280;41249;47.838;16.490;2023-04-21T10:18:10;99343.88;;;15.34;40.66
55373;BME280;41249;47.838;16.490;2023-04-21T10:20:54;99336.91;;;14.99;41.53
55373;BME280;41249;47.838;16.490;2023-04-21T10:23:25;99339.47;;;14.67;42.15
55373;BME280;41249;47.838;16.490;2023-04-21T10:25:51;99335.94;;;14.63;41.67
55373;BME280;41249;47.838;16.490;2023-04-21T10:28:18;99335.13;;;14.39;41.39
55373;BME280;41249;47.838;16.490;2023-04-21T10:30:48;99337.63;;;14.57;42.49
55373;BME280;41249;47.838;16.490;2023-04-21T10:33:14;99340.63;;;15.12;41.32
55373;BME280;41249;47.838;16.490;2023-04-21T10:35:56;99331.91;;;15.10;40.62
55373;BME280;41249;47.838;16.490;2023-04-21T10:38:32;99325.59;;;15.06;42.99
55373;BME280;41249;47.838;16.490;2023-04-21T10:41:08;99320.13;;;15.42;41.87
55373;BME280;41249;47.838;16.490;2023-04-21T10:43:51;99320.72;;;15.33;41.76
55373;BME280;41249;47.838;16.490;2023-04-21T10:46:30;99322.94;;;15.62;42.41
55373;BME280;41249;47.838;16.490;2023-04-21T10:49:39;99312.66;;;15.55;39.94
55373;BME280;41249;47.838;16.490;2023-04-21T10:54:26;99312.47;;;15.82;41.46
55373;BME280;41249;47.838;16.490;2023-04-21T10:56:53;99309.38;;;15.96;41.40
55373;BME280;41249;47.838;16.490;2023-04-21T10:59:20;99307.34;;;16.16;40.27
55373;BME280;41249;47.838;16.490;2023-04-21T11:01:47;99312.28;;;16.28;40.16
55373;BME280;41249;47.838;16.490;2023-04-21T11:04:16;99311.81;;;16.30;41.46
55373;BME280;41249;47.838;16.490;2023-04-21T11:09:29;99304.84;;;15.46;39.08
55373;BME280;41249;47.838;16.490;2023-04-21T11:11:59;99300.06;;;15.04;40.05
55373;BME280;41249;47.838;16.490;2023-04-21T11:14:27;99294.72;;;15.33;39.49
55373;BME280;41249;47.838;16.490;2023-04-21T11:16:54;99304.13;;;15.42;37.90
55373;BME280;41249;47.838;16.490;2023-04-21T11:19:21;99300.75;;;15.71;38.99
55373;BME280;41249;47.838;16.490;2023-04-21T11:21:49;99298.25;;;15.92;38.59
55373;BME280;41249;47.838;16.490;2023-04-21T11:24:16;99284.19;;;15.60;36.93
55373;BME280;41249;47.838;16.490;2023-04-21T11:26:42;99291.44;;;15.93;38.37
55373;BME280;41249;47.838;16.490;2023-04-21T11:29:10;99287.84;;;16.29;38.63
55373;BME280;41249;47.838;16.490;2023-04-21T11:31:38;99289.44;;;15.94;36.65
55373;BME280;41249;47.838;16.490;2023-04-21T11:34:05;99275.72;;;15.64;35.67
55373;BME280;41249;47.838;16.490;2023-04-21T11:39:14;99284.47;;;15.66;37.68
55373;BME280;41249;47.838;16.490;2023-04-21T11:41:42;99272.88;;;15.99;37.19
55373;BME280;41249;47.838;16.490;2023-04-21T11:44:09;99283.97;;;15.87;33.58
55373;BME280;41249;47.838;16.490;2023-04-21T11:46:36;99278.41;;;16.03;35.89
55373;BME280;41249;47.838;16.490;2023-04-21T11:49:04;99276.72;;;16.09;34.77
55373;BME280;41249;47.838;16.490;2023-04-21T11:51:35;99270.66;;;15.39;35.31
55373;BME280;41249;47.838;16.490;2023-04-21T11:54:06;99268.19;;;15.41;37.01
55373;BME280;41249;47.838;16.490;2023-04-21T11:56:36;99269.13;;;15.34;32.27
55373;BME280;41249;47.838;16.490;2023-04-21T11:59:15;99265.00;;;15.00;32.59
55373;BME280;41249;47.838;16.490;2023-04-21T12:04:24;99266.41;;;15.50;35.99
55373;BME280;41249;47.838;16.490;2023-04-21T12:07:00;99265.66;;;15.66;36.45
55373;BME280;41249;47.838;16.490;2023-04-21T12:09:27;99256.16;;;15.80;32.43
55373;BME280;41249;47.838;16.490;2023-04-21T12:11:55;99254.19;;;15.96;35.96
55373;BME280;41249;47.838;16.490;2023-04-21T12:14:27;99247.66;;;16.19;31.25
55373;BME280;41249;47.838;16.490;2023-04-21T12:16:55;99260.59;;;16.29;34.62
55373;BME280;41249;47.838;16.490;2023-04-21T12:19:43;99252.44;;;16.67;36.71
55373;BME280;41249;47.838;16.490;2023-04-21T12:24:35;99247.28;;;16.65;36.52
55373;BME280;41249;47.838;16.490;2023-04-21T12:27:02;99249.66;;;16.35;35.16
55373;BME280;41249;47.838;16.490;2023-04-21T12:29:29;99247.56;;;16.06;33.75
55373;BME280;41249;47.838;16.490;2023-04-21T12:31:55;99248.19;;;16.46;36.27
55373;BME280;41249;47.838;16.490;2023-04-21T12:34:22;99243.19;;;16.54;36.21
55373;BME280;41249;47.838;16.490;2023-04-21T12:36:48;99247.09;;;16.72;36.25
55373;BME280;41249;47.838;16.490;2023-04-21T12:39:15;99250.19;;;17.07;35.19
55373;BME280;41249;47.838;16.490;2023-04-21T12:41:44;99236.69;;;17.02;36.67
55373;BME280;41249;47.838;16.490;2023-04-21T12:44:12;99243.22;;;16.99;36.04
55373;BME280;41249;47.838;16.490;2023-04-21T12:46:39;99241.03;;;16.74;35.27
55373;BME280;41249;47.838;16.490;2023-04-21T12:49:06;99239.81;;;16.91;36.44
55373;BME280;41249;47.838;16.490;2023-04-21T12:51:32;99233.13;;;16.56;33.86
55373;BME280;41249;47.838;16.490;2023-04-21T12:53:59;99234.06;;;16.50;30.52
55373;BME280;41249;47.838;16.490;2023-04-21T12:56:25;99225.31;;;16.48;34.44
55373;BME280;41249;47.838;16.490;2023-04-21T12:58:52;99226.59;;;16.75;36.31
55373;BME280;41249;47.838;16.490;2023-04-21T13:01:21;99223.25;;;16.80;36.96
55373;BME280;41249;47.838;16.490;2023-04-21T13:03:48;99224.34;;;16.54;35.75
55373;BME280;41249;47.838;16.490;2023-04-21T13:06:15;99211.47;;;16.57;34.79
55373;BME280;41249;47.838;16.490;2023-04-21T13:08:42;99210.00;;;16.04;34.70
55373;BME280;41249;47.838;16.490;2023-04-21T13:11:08;99217.69;;;15.84;35.65
55373;BME280;41249;47.838;16.490;2023-04-21T13:13:35;99208.50;;;15.83;34.23
55373;BME280;41249;47.838;16.490;2023-04-21T13:16:02;99207.44;;;15.93;34.22
55373;BME280;41249;47.838;16.490;2023-04-21T13:18:28;99197.59;;;15.53;32.16